Ana Sayfa
METAR-TAF:

METAR-TAF

Havaalanları :

Harriman-and-West Airport

North Adams, Massachusetts, Amerika Birleşik Devletleri

Enlem: 42-41-50N, Boylam: 073-10-13W, yükseklik: 199 m

Güncel hava durumu gözlemi

Rapor saat 09:52 UTC de 16 dakika önce yapıldı.
Rüzgar güneydoğudan 3 kt
Sıcaklık 14°C
Nem 100%
Basınç 1017 hPa
Görüş mesafesi: 0.4 km
sis

METAR: KAQW 260952Z AUTO 13003KT 1/4SM FG VV002 14/14 A3002 RMK AO2 SLP164 T01390139

Saat: 06:08 (10:08 UTC)


TAF: eksik

4.000'den fazla havaalanı için hava durumu gözlemleri ve tahminleri (METAR ve TAF raporları).

Kullanılabilir istasyonlar harita üzerinde sarı ve kırmızı noktalarla gösterilir.

İstasyonun adını görmek için fareyi noktanın üzerinde gezdirin.

Sonrasında hava gözlem ve tahminlerini görmek için tıklayın.

Haritayı değiştirmek için: yaklaştırmak için siyah artı işaretli yeşil düğmeye ve uzaklaştırmak için de eksi işaretli düğmeye hızla tıklayın; bitişik haritalar için yeşil okları kullanın.


METAR-TAF: